La Gavraise 2 — FU6293 — position and weather

sailwx.info

Track history (hours):
 
Tides and Currents Weather Stations Pressure Air Temp Water Temp Dewpoint Dewpoint Depression Visibility Wind Speed Wind Dir Waves Ship Positions

La Gavraise 2

Last reported at 2018-Feb-21 04:20 UTC. Time now 2018-Feb-21 11:48 UTC.
Position N 47°23' W 003°19'.

Length 12 m.

Type: Fishing. MMSI: 227315950.

Date/timePositionNaut miles runAvg speedWind from/ knotsBaromVisibWave heightAir tempDewpointWater temp
2018-Feb-21 04:20N 47°23' W 003°19'3 9.0
2018-Feb-21 04:00N 47°26' W 003°20'5 9.0
2018-Feb-21 03:30N 47°31' W 003°20'5 9.3
2018-Feb-21 03:00N 47°35' W 003°21'5 9.3
2018-Feb-21 02:30N 47°40' W 003°22'4 7.2
2018-Feb-21 01:58N 47°44' W 003°22'0 0.0
2018-Feb-20 15:18N 47°44' W 003°22'0 0.4
2018-Feb-20 14:59N 47°44' W 003°22'2 3.9
2018-Feb-20 14:31N 47°42' W 003°22'4 8.7
2018-Feb-20 14:01N 47°38' W 003°22'4 8.7
2018-Feb-20 13:30N 47°33' W 003°21'5 9.0
2018-Feb-20 12:59N 47°28' W 003°21'5 0.6
2018-Feb-20 04:00N 47°23' W 003°19'4 8.8
2018-Feb-20 03:31N 47°28' W 003°20'4 8.6
2018-Feb-20 03:01N 47°32' W 003°21'4 9.0
2018-Feb-20 02:31N 47°36' W 003°21'4 8.9
2018-Feb-20 02:00N 47°41' W 003°22'3 0.4
2018-Feb-19 18:56N 47°44' W 003°22'0 0.0
2018-Feb-19 17:53N 47°44' W 003°22'0 0.0
2018-Feb-19 17:30N 47°44' W 003°22'0 0.2
2018-Feb-19 16:58N 47°44' W 003°22'0 0.0
2018-Feb-19 16:28N 47°44' W 003°22'0 0.0
2018-Feb-19 15:58N 47°44' W 003°22'4 7.7
2018-Feb-19 15:30N 47°40' W 003°22'4 9.0
2018-Feb-19 15:00N 47°36' W 003°22'4 8.8
2018-Feb-19 14:30N 47°31' W 003°21'5 9.3
2018-Feb-19 13:55N 47°26' W 003°20'2 0.2
2018-Feb-19 03:56N 47°24' W 003°19'4 9.3
2018-Feb-19 03:30N 47°28' W 003°20'4 8.7
2018-Feb-19 03:00N 47°32' W 003°20'4 8.8
2018-Feb-19 02:30N 47°37' W 003°21'4 8.8
2018-Feb-19 02:00N 47°41' W 003°22'3 0.1
2018-Feb-17 17:37N 47°44' W 003°22'0 0.0
2018-Feb-17 17:28N 47°44' W 003°22'0 0.6
2018-Feb-17 17:00N 47°44' W 003°22'0 0.3
2018-Feb-17 16:30N 47°44' W 003°22'4 8.1
2018-Feb-17 16:00N 47°40' W 003°22'4 8.7
2018-Feb-17 15:30N 47°35' W 003°22'4 8.7
2018-Feb-17 15:00N 47°31' W 003°20'4 8.6
2018-Feb-17 14:30N 47°27' W 003°19'3 0.3
2018-Feb-17 04:04N 47°24' W 003°19'1 8.6
2018-Feb-17 04:00N 47°24' W 003°19'4 8.6
2018-Feb-17 03:30N 47°29' W 003°20'4 8.6
2018-Feb-17 03:00N 47°33' W 003°21'4 8.6
2018-Feb-17 02:29N 47°37' W 003°22'4 8.4
2018-Feb-17 02:00N 47°41' W 003°22'2 0.4
2018-Feb-16 19:06N 47°44' W 003°22'0 1.0
2018-Feb-16 19:00N 47°44' W 003°22'0 0.0
2018-Feb-16 18:30N 47°44' W 003°22'0 0.0
2018-Feb-16 18:00N 47°44' W 003°22'3 5.5
2018-Feb-16 17:30N 47°41' W 003°22'5 9.0
2018-Feb-16 17:00N 47°37' W 003°22'4 9.0
2018-Feb-16 16:30N 47°32' W 003°21'5 9.1
2018-Feb-16 16:00N 47°28' W 003°19'7 0.6
2018-Feb-16 04:26N 47°20' W 003°19'4 8.6
2018-Feb-16 04:00N 47°24' W 003°19'4 8.9
2018-Feb-16 03:30N 47°28' W 003°20'4 8.7
2018-Feb-16 03:00N 47°33' W 003°20'4 8.7
2018-Feb-16 02:30N 47°37' W 003°21'4 8.6
2018-Feb-16 02:00N 47°41' W 003°22'3 0.3
2018-Feb-15 16:36N 47°44' W 003°22'0 0.7
2018-Feb-15 16:28N 47°44' W 003°22'0 0.1
2018-Feb-15 16:00N 47°44' W 003°22'4 8.6
2018-Feb-15 15:30N 47°39' W 003°22'4 8.8
2018-Feb-15 15:00N 47°35' W 003°21'4 8.9
2018-Feb-15 14:30N 47°31' W 003°20'4 9.0
2018-Feb-15 14:00N 47°26' W 003°20'5 0.5
2018-Feb-15 04:17N 47°21' W 003°19'3 8.9
2018-Feb-15 04:00N 47°24' W 003°19'4 8.8
2018-Feb-15 03:30N 47°28' W 003°20'4 8.7
2018-Feb-15 03:00N 47°32' W 003°20'4 8.8
2018-Feb-15 02:30N 47°37' W 003°21'4 8.7
2018-Feb-15 02:00N 47°41' W 003°22'3 0.2
2018-Feb-14 10:08N 47°44' W 003°22'0 0.0
2018-Feb-14 10:00N 47°44' W 003°22'4 8.4
2018-Feb-14 09:30N 47°40' W 003°22'5 9.5
2018-Feb-14 09:00N 47°35' W 003°21'5 9.4
2018-Feb-14 08:27N 47°30' W 003°19'4 9.6
2018-Feb-14 08:00N 47°26' W 003°18'2 0.4
2018-Feb-14 04:02N 47°24' W 003°19'1 8.7
2018-Feb-14 03:55N 47°25' W 003°19'4 8.8
2018-Feb-14 03:30N 47°29' W 003°20'4 8.7
2018-Feb-14 03:00N 47°33' W 003°20'4 8.8
2018-Feb-14 02:30N 47°38' W 003°22'4 8.6
2018-Feb-14 02:00N 47°42' W 003°22'2 0.2
2018-Feb-13 17:00N 47°44' W 003°22'0 0.0
2018-Feb-13 16:30N 47°44' W 003°22'0 0.0
2018-Feb-12 16:21N 47°44' W 003°22'0 0.0
2018-Feb-12 15:59N 47°44' W 003°22'0 0.3
2018-Feb-12 15:17N 47°44' W 003°22'2 8.2
2018-Feb-12 15:00N 47°41' W 003°22'4 8.4
2018-Feb-12 14:30N 47°37' W 003°22'4 8.5
2018-Feb-12 14:00N 47°33' W 003°21'4 8.5
2018-Feb-12 13:30N 47°29' W 003°20'10 1.1
2018-Feb-12 04:31N 47°19' W 003°18'3 6.6
2018-Feb-12 04:05N 47°22' W 003°19'1 9.2
2018-Feb-12 03:57N 47°23' W 003°20'4 9.1
2018-Feb-12 03:30N 47°27' W 003°20'5 9.0
2018-Feb-12 03:00N 47°32' W 003°20'5 9.2
2018-Feb-12 02:30N 47°36' W 003°21'5 9.1
2018-Feb-12 02:00N 47°41' W 003°22'3 0.3
2018-Feb-11 14:50N 47°44' W 003°22'0 0.3
2018-Feb-11 14:30N 47°44' W 003°22'2 4.0
2018-Feb-11 14:00N 47°42' W 003°22'4 8.3
2018-Feb-11 13:30N 47°38' W 003°21'4 8.5
2018-Feb-11 13:00N 47°33' W 003°20'4 8.6
2018-Feb-11 12:30N 47°29' W 003°19'4 8.5
2018-Feb-11 12:00N 47°25' W 003°18'  
Track history (hours):
 
Tides and Currents Weather Stations Pressure Air Temp Water Temp Dewpoint Dewpoint Depression Visibility Wind Speed Wind Dir Waves Ship Positions

La Gavraise 2

Last reported at 2018-Feb-21 04:20 UTC. Time now 2018-Feb-21 11:48 UTC.
Position N 47°23' W 003°19'.

Length 12 m.

Type: Fishing. MMSI: 227315950.

Date/timePositionNaut miles runAvg speedWind from/ knotsBaromVisibWave heightAir tempDewpointWater temp
2018-Feb-21 04:20N 47°23' W 003°19'3 9.0
2018-Feb-21 04:00N 47°26' W 003°20'5 9.0
2018-Feb-21 03:30N 47°31' W 003°20'5 9.3
2018-Feb-21 03:00N 47°35' W 003°21'5 9.3
2018-Feb-21 02:30N 47°40' W 003°22'4 7.2
2018-Feb-21 01:58N 47°44' W 003°22'0 0.0
2018-Feb-20 15:18N 47°44' W 003°22'0 0.4
2018-Feb-20 14:59N 47°44' W 003°22'2 3.9
2018-Feb-20 14:31N 47°42' W 003°22'4 8.7
2018-Feb-20 14:01N 47°38' W 003°22'4 8.7
2018-Feb-20 13:30N 47°33' W 003°21'5 9.0
2018-Feb-20 12:59N 47°28' W 003°21'5 0.6
2018-Feb-20 04:00N 47°23' W 003°19'4 8.8
2018-Feb-20 03:31N 47°28' W 003°20'4 8.6
2018-Feb-20 03:01N 47°32' W 003°21'4 9.0
2018-Feb-20 02:31N 47°36' W 003°21'4 8.9
2018-Feb-20 02:00N 47°41' W 003°22'3 0.4
2018-Feb-19 18:56N 47°44' W 003°22'0 0.0
2018-Feb-19 17:53N 47°44' W 003°22'0 0.0
2018-Feb-19 17:30N 47°44' W 003°22'0 0.2
2018-Feb-19 16:58N 47°44' W 003°22'0 0.0
2018-Feb-19 16:28N 47°44' W 003°22'0 0.0
2018-Feb-19 15:58N 47°44' W 003°22'4 7.7
2018-Feb-19 15:30N 47°40' W 003°22'4 9.0
2018-Feb-19 15:00N 47°36' W 003°22'4 8.8
2018-Feb-19 14:30N 47°31' W 003°21'5 9.3
2018-Feb-19 13:55N 47°26' W 003°20'2 0.2
2018-Feb-19 03:56N 47°24' W 003°19'4 9.3
2018-Feb-19 03:30N 47°28' W 003°20'4 8.7
2018-Feb-19 03:00N 47°32' W 003°20'4 8.8
2018-Feb-19 02:30N 47°37' W 003°21'4 8.8
2018-Feb-19 02:00N 47°41' W 003°22'3 0.1
2018-Feb-17 17:37N 47°44' W 003°22'0 0.0
2018-Feb-17 17:28N 47°44' W 003°22'0 0.6
2018-Feb-17 17:00N 47°44' W 003°22'0 0.3
2018-Feb-17 16:30N 47°44' W 003°22'4 8.1
2018-Feb-17 16:00N 47°40' W 003°22'4 8.7
2018-Feb-17 15:30N 47°35' W 003°22'4 8.7
2018-Feb-17 15:00N 47°31' W 003°20'4 8.6
2018-Feb-17 14:30N 47°27' W 003°19'3 0.3
2018-Feb-17 04:04N 47°24' W 003°19'1 8.6
2018-Feb-17 04:00N 47°24' W 003°19'4 8.6
2018-Feb-17 03:30N 47°29' W 003°20'4 8.6
2018-Feb-17 03:00N 47°33' W 003°21'4 8.6
2018-Feb-17 02:29N 47°37' W 003°22'4 8.4
2018-Feb-17 02:00N 47°41' W 003°22'2 0.4
2018-Feb-16 19:06N 47°44' W 003°22'0 1.0
2018-Feb-16 19:00N 47°44' W 003°22'0 0.0
2018-Feb-16 18:30N 47°44' W 003°22'0 0.0
2018-Feb-16 18:00N 47°44' W 003°22'3 5.5
2018-Feb-16 17:30N 47°41' W 003°22'5 9.0
2018-Feb-16 17:00N 47°37' W 003°22'4 9.0
2018-Feb-16 16:30N 47°32' W 003°21'5 9.1
2018-Feb-16 16:00N 47°28' W 003°19'7 0.6
2018-Feb-16 04:26N 47°20' W 003°19'4 8.6
2018-Feb-16 04:00N 47°24' W 003°19'4 8.9
2018-Feb-16 03:30N 47°28' W 003°20'4 8.7
2018-Feb-16 03:00N 47°33' W 003°20'4 8.7
2018-Feb-16 02:30N 47°37' W 003°21'4 8.6
2018-Feb-16 02:00N 47°41' W 003°22'3 0.3
2018-Feb-15 16:36N 47°44' W 003°22'0 0.7
2018-Feb-15 16:28N 47°44' W 003°22'0 0.1
2018-Feb-15 16:00N 47°44' W 003°22'4 8.6
2018-Feb-15 15:30N 47°39' W 003°22'4 8.8
2018-Feb-15 15:00N 47°35' W 003°21'4 8.9
2018-Feb-15 14:30N 47°31' W 003°20'4 9.0
2018-Feb-15 14:00N 47°26' W 003°20'5 0.5
2018-Feb-15 04:17N 47°21' W 003°19'3 8.9
2018-Feb-15 04:00N 47°24' W 003°19'4 8.8
2018-Feb-15 03:30N 47°28' W 003°20'4 8.7
2018-Feb-15 03:00N 47°32' W 003°20'4 8.8
2018-Feb-15 02:30N 47°37' W 003°21'4 8.7
2018-Feb-15 02:00N 47°41' W 003°22'3 0.2
2018-Feb-14 10:08N 47°44' W 003°22'0 0.0
2018-Feb-14 10:00N 47°44' W 003°22'4 8.4
2018-Feb-14 09:30N 47°40' W 003°22'5 9.5
2018-Feb-14 09:00N 47°35' W 003°21'5 9.4
2018-Feb-14 08:27N 47°30' W 003°19'4 9.6
2018-Feb-14 08:00N 47°26' W 003°18'2 0.4
2018-Feb-14 04:02N 47°24' W 003°19'1 8.7
2018-Feb-14 03:55N 47°25' W 003°19'4 8.8
2018-Feb-14 03:30N 47°29' W 003°20'4 8.7
2018-Feb-14 03:00N 47°33' W 003°20'4 8.8
2018-Feb-14 02:30N 47°38' W 003°22'4 8.6
2018-Feb-14 02:00N 47°42' W 003°22'2 0.2
2018-Feb-13 17:00N 47°44' W 003°22'0 0.0
2018-Feb-13 16:30N 47°44' W 003°22'0 0.0
2018-Feb-12 16:21N 47°44' W 003°22'0 0.0
2018-Feb-12 15:59N 47°44' W 003°22'0 0.3
2018-Feb-12 15:17N 47°44' W 003°22'2 8.2
2018-Feb-12 15:00N 47°41' W 003°22'4 8.4
2018-Feb-12 14:30N 47°37' W 003°22'4 8.5
2018-Feb-12 14:00N 47°33' W 003°21'4 8.5
2018-Feb-12 13:30N 47°29' W 003°20'10 1.1
2018-Feb-12 04:31N 47°19' W 003°18'3 6.6
2018-Feb-12 04:05N 47°22' W 003°19'1 9.2
2018-Feb-12 03:57N 47°23' W 003°20'4 9.1
2018-Feb-12 03:30N 47°27' W 003°20'5 9.0
2018-Feb-12 03:00N 47°32' W 003°20'5 9.2
2018-Feb-12 02:30N 47°36' W 003°21'5 9.1
2018-Feb-12 02:00N 47°41' W 003°22'3 0.3
2018-Feb-11 14:50N 47°44' W 003°22'0 0.3
2018-Feb-11 14:30N 47°44' W 003°22'2 4.0
2018-Feb-11 14:00N 47°42' W 003°22'4 8.3
2018-Feb-11 13:30N 47°38' W 003°21'4 8.5
2018-Feb-11 13:00N 47°33' W 003°20'4 8.6
2018-Feb-11 12:30N 47°29' W 003°19'4 8.5
2018-Feb-11 12:00N 47°25' W 003°18'  

Dump ship's entire track history